Time;durP1;ratioP1;P1;durP2;ratioP2;P2;SDS_P1;SDS_P2;PMS_P1;PMS_P2;Temp;Humidity;BMP_temperature;BMP_pressure;BME280_temperature;BME280_humidity;BME280_pressure;Samples;Min_cycle;Max_cycle;Signal;HPM_P1;HPM_P2
2022/05/01 00:01:19;;;;;;;1.73;1.17;;;23.80;37.30;;;;;;4991217;28;20419;-65
2022/05/01 00:03:45;;;;;;;1.30;1.10;;;23.80;37.20;;;;;;4992939;28;20469;-64
2022/05/01 00:06:13;;;;;;;1.60;1.05;;;23.80;37.30;;;;;;4991828;28;20417;-65
2022/05/01 00:08:41;;;;;;;1.30;0.98;;;23.80;37.30;;;;;;4993052;28;20405;-65
2022/05/01 00:11:08;;;;;;;1.55;1.00;;;23.80;37.20;;;;;;4992295;28;20448;-65
2022/05/01 00:13:34;;;;;;;1.13;1.02;;;23.80;37.20;;;;;;4992984;28;20399;-65
2022/05/01 00:16:00;;;;;;;1.80;0.90;;;23.90;37.30;;;;;;4991574;28;20437;-70
2022/05/01 00:18:26;;;;;;;1.30;1.00;;;23.90;37.30;;;;;;4992801;28;20403;-68
2022/05/01 00:20:51;;;;;;;2.17;1.00;;;23.90;37.30;;;;;;4992751;28;20914;-65
2022/05/01 00:23:19;;;;;;;1.70;1.10;;;23.90;37.30;;;;;;4992291;28;20818;-65
2022/05/01 00:25:45;;;;;;;1.20;1.10;;;23.90;37.30;;;;;;4991470;28;20896;-66
2022/05/01 00:28:14;;;;;;;1.50;1.20;;;23.90;37.20;;;;;;4991358;28;20399;-67
2022/05/01 00:30:41;;;;;;;1.52;1.00;;;23.90;37.20;;;;;;4991758;28;20399;-65
2022/05/01 00:38:36;;;;;;;1.30;1.08;;;23.90;37.20;;;;;;4992403;28;20426;-64
2022/05/01 00:41:04;;;;;;;1.58;1.08;;;23.90;37.20;;;;;;4992394;28;20423;-65
2022/05/01 00:43:31;;;;;;;1.55;1.20;;;23.90;37.10;;;;;;4992255;28;20382;-64
2022/05/01 00:45:56;;;;;;;1.05;0.95;;;23.90;37.10;;;;;;4992337;28;20397;-65
2022/05/01 00:48:22;;;;;;;1.27;0.95;;;23.90;37.20;;;;;;4992391;28;20394;-65
2022/05/01 00:50:48;;;;;;;2.05;1.00;;;23.90;37.20;;;;;;4992300;28;20780;-65
2022/05/01 00:53:14;;;;;;;1.52;0.90;;;23.80;37.10;;;;;;4991795;28;20798;-66
2022/05/01 00:55:40;;;;;;;1.48;1.00;;;23.90;37.20;;;;;;4992321;28;20878;-65
2022/05/01 00:58:07;;;;;;;1.10;0.90;;;23.90;37.00;;;;;;4992260;28;20390;-64
2022/05/01 01:00:36;;;;;;;1.42;0.98;;;23.90;37.10;;;;;;4992103;28;20410;-65
2022/05/01 01:03:02;;;;;;;1.80;0.93;;;23.90;37.00;;;;;;4992255;28;20401;-65
2022/05/01 01:05:28;;;;;;;1.45;0.82;;;23.90;37.10;;;;;;4991739;28;20462;-65
2022/05/01 01:07:53;;;;;;;1.15;0.80;;;23.90;37.00;;;;;;4990982;28;20827;-65
2022/05/01 01:10:19;;;;;;;1.30;0.88;;;23.90;37.10;;;;;;4990706;28;20399;-66
2022/05/01 01:12:55;;;;;;;1.10;0.80;;;23.90;37.10;;;;;;4990955;28;20419;-66
2022/05/01 01:15:25;;;;;;;1.00;0.80;;;23.90;37.10;;;;;;4991699;28;20413;-65
2022/05/01 01:17:54;;;;;;;1.40;1.00;;;23.90;37.20;;;;;;4992173;28;20402;-66
2022/05/01 01:20:22;;;;;;;1.23;0.90;;;23.90;37.10;;;;;;4992009;28;20418;-65
2022/05/01 01:22:50;;;;;;;1.60;0.80;;;23.90;37.10;;;;;;4992054;28;20390;-66
2022/05/01 01:25:22;;;;;;;1.23;1.08;;;23.90;37.00;;;;;;4991520;28;20398;-65
2022/05/01 01:27:49;;;;;;;0.95;0.85;;;23.90;37.10;;;;;;4990822;28;20398;-65
2022/05/01 01:33:00;;;;;;;1.10;0.90;;;23.80;37.00;;;;;;4991416;28;20385;-65
2022/05/01 01:35:26;;;;;;;1.42;1.08;;;23.90;37.10;;;;;;4991317;28;20398;-65
2022/05/01 01:37:54;;;;;;;1.73;0.93;;;23.90;37.10;;;;;;4991954;28;20401;-65
2022/05/01 01:40:27;;;;;;;1.27;0.73;;;23.90;37.10;;;;;;4991719;28;20861;-65
2022/05/01 01:42:55;;;;;;;1.20;0.88;;;23.80;36.90;;;;;;4995758;28;20895;-65
2022/05/01 01:45:22;;;;;;;1.40;0.70;;;23.80;37.00;;;;;;4995250;28;20946;-65
2022/05/01 01:47:50;;;;;;;1.00;0.90;;;23.80;37.00;;;;;;4995700;28;20445;-65
2022/05/01 01:50:19;;;;;;;1.08;0.90;;;23.80;37.00;;;;;;4995558;28;20870;-66
2022/05/01 01:52:48;;;;;;;1.52;0.82;;;23.80;37.10;;;;;;4995696;28;20867;-65
2022/05/01 01:55:15;;;;;;;1.10;0.80;;;23.90;37.10;;;;;;4995046;28;20397;-67
2022/05/01 01:57:41;;;;;;;1.55;1.00;;;23.80;37.10;;;;;;4995622;28;20398;-66
2022/05/01 02:00:08;;;;;;;1.48;1.08;;;23.80;37.10;;;;;;4995278;28;20456;-66
2022/05/01 02:02:33;;;;;;;1.00;0.83;;;23.80;36.90;;;;;;4995427;28;20394;-65
2022/05/01 02:04:59;;;;;;;1.67;1.00;;;23.80;37.00;;;;;;4995352;28;20394;-65
2022/05/01 02:07:25;;;;;;;1.40;0.80;;;23.90;37.00;;;;;;4994862;28;20399;-66
2022/05/01 02:09:50;;;;;;;1.10;0.80;;;23.90;37.00;;;;;;4995273;28;20755;-65
2022/05/01 02:12:16;;;;;;;1.10;0.70;;;23.80;37.00;;;;;;4995068;28;20429;-65
2022/05/01 02:14:41;;;;;;;1.43;0.80;;;23.80;37.00;;;;;;4995202;28;20402;-65
2022/05/01 02:17:07;;;;;;;1.55;0.80;;;23.80;37.00;;;;;;4995129;28;20397;-65
2022/05/01 02:19:33;;;;;;;1.57;0.80;;;23.80;36.90;;;;;;4994787;28;20403;-64
2022/05/01 02:21:58;;;;;;;1.30;0.93;;;23.80;36.90;;;;;;4994931;28;20394;-65
2022/05/01 02:24:25;;;;;;;1.00;0.90;;;23.80;36.90;;;;;;4993839;28;20394;-64
2022/05/01 02:26:51;;;;;;;1.90;1.10;;;23.80;36.90;;;;;;4994934;28;20870;-64
2022/05/01 02:29:17;;;;;;;1.23;0.70;;;23.80;37.00;;;;;;4993180;28;20461;-64
2022/05/01 02:31:44;;;;;;;1.50;0.90;;;23.80;37.00;;;;;;4994897;28;20391;-65
2022/05/01 02:34:11;;;;;;;1.10;0.80;;;23.80;37.10;;;;;;4994839;28;20394;-65
2022/05/01 02:36:37;;;;;;;1.35;0.70;;;23.80;36.90;;;;;;4994820;28;20437;-65
2022/05/01 02:39:04;;;;;;;1.42;0.90;;;23.80;37.00;;;;;;4994576;28;20407;-65
2022/05/01 02:41:31;;;;;;;1.02;0.70;;;23.80;36.90;;;;;;4994161;28;20884;-65
2022/05/01 02:43:58;;;;;;;2.30;0.80;;;23.80;36.90;;;;;;4994599;28;20394;-66
2022/05/01 02:46:26;;;;;;;1.02;0.80;;;23.80;37.00;;;;;;4994549;28;20414;-66
2022/05/01 02:48:52;;;;;;;1.52;0.82;;;23.80;36.90;;;;;;4994600;28;20390;-66
2022/05/01 02:51:17;;;;;;;1.50;0.80;;;23.80;37.00;;;;;;4994011;28;20461;-66
2022/05/01 02:53:43;;;;;;;1.10;0.90;;;23.80;37.00;;;;;;4993565;28;20383;-65
2022/05/01 02:56:09;;;;;;;1.70;0.90;;;23.80;37.00;;;;;;4994424;28;20887;-65
2022/05/01 02:58:35;;;;;;;1.10;0.70;;;23.80;37.00;;;;;;4994399;28;20875;-65
2022/05/01 03:01:01;;;;;;;1.03;0.80;;;23.80;37.00;;;;;;4994313;28;20418;-64
2022/05/01 03:03:28;;;;;;;1.20;0.80;;;23.80;36.90;;;;;;4993837;28;20390;-65
2022/05/01 03:05:57;;;;;;;0.93;0.70;;;23.80;36.80;;;;;;4994294;28;20391;-65
2022/05/01 03:08:23;;;;;;;1.40;0.90;;;23.80;36.90;;;;;;4994163;28;20399;-65
2022/05/01 03:10:49;;;;;;;1.77;0.90;;;23.80;36.90;;;;;;4994076;28;20465;-65
2022/05/01 03:13:14;;;;;;;1.45;0.90;;;23.80;36.90;;;;;;4993928;28;20386;-65
2022/05/01 03:15:40;;;;;;;1.30;0.80;;;23.80;36.90;;;;;;4993823;28;20523;-65
2022/05/01 03:23:35;;;;;;;1.15;0.80;;;23.80;37.00;;;;;;4993455;28;20389;-68
2022/05/01 03:26:00;;;;;;;1.63;0.93;;;23.80;36.90;;;;;;4993850;28;20395;-67
2022/05/01 03:28:26;;;;;;;1.37;0.90;;;23.80;36.90;;;;;;4993937;28;20747;-65
2022/05/01 03:30:56;;;;;;;1.10;0.90;;;23.80;36.80;;;;;;4993330;28;20409;-65
2022/05/01 03:33:22;;;;;;;1.15;0.70;;;23.80;36.90;;;;;;4993081;28;20894;-65
2022/05/01 03:35:49;;;;;;;1.20;0.80;;;23.80;36.90;;;;;;4993396;28;20398;-67
2022/05/01 03:38:16;;;;;;;2.20;0.90;;;23.80;36.90;;;;;;4993254;28;20921;-66
2022/05/01 03:40:47;;;;;;;1.55;0.85;;;23.80;37.00;;;;;;4993187;28;20465;-67
2022/05/01 03:43:15;;;;;;;0.90;0.80;;;23.80;36.90;;;;;;4993329;28;20390;-65
2022/05/01 03:45:41;;;;;;;1.10;0.80;;;23.80;36.80;;;;;;4993276;28;20494;-65
2022/05/01 03:48:07;;;;;;;1.40;0.75;;;23.80;36.90;;;;;;4993484;28;20918;-66
2022/05/01 03:50:33;;;;;;;1.55;0.88;;;23.80;36.90;;;;;;4993461;28;20538;-65
2022/05/01 03:52:59;;;;;;;1.57;0.80;;;23.80;36.80;;;;;;4993309;28;20856;-67
2022/05/01 03:55:25;;;;;;;1.70;0.88;;;23.80;36.80;;;;;;4992974;28;20426;-67
2022/05/01 03:57:50;;;;;;;1.40;0.70;;;23.80;36.80;;;;;;4992651;28;20755;-65
2022/05/01 04:00:19;;;;;;;1.27;0.80;;;23.80;36.90;;;;;;4992658;28;20402;-66
2022/05/01 04:02:46;;;;;;;1.33;0.90;;;23.80;36.90;;;;;;4993241;28;20479;-65
2022/05/01 04:05:12;;;;;;;1.45;0.85;;;23.80;36.90;;;;;;4992863;28;20453;-66
2022/05/01 04:07:39;;;;;;;1.60;0.75;;;23.70;36.90;;;;;;4992765;28;20394;-65
2022/05/01 04:10:05;;;;;;;1.20;0.88;;;23.80;36.90;;;;;;4993158;28;20806;-65
2022/05/01 04:12:42;;;;;;;1.08;0.80;;;23.70;36.90;;;;;;4993008;28;20440;-64
2022/05/01 04:15:09;;;;;;;1.25;0.80;;;23.70;36.80;;;;;;4992933;28;20407;-65
2022/05/01 04:17:41;;;;;;;1.38;0.82;;;23.70;36.80;;;;;;4992513;28;20390;-65
2022/05/01 04:20:08;;;;;;;1.30;0.88;;;23.80;36.80;;;;;;4991475;28;20803;-66
2022/05/01 04:22:44;;;;;;;1.38;0.90;;;23.70;36.80;;;;;;4991586;28;20398;-65
2022/05/01 04:25:19;;;;;;;1.30;0.90;;;23.70;36.80;;;;;;4991558;28;20391;-65
2022/05/01 04:27:47;;;;;;;1.08;0.93;;;23.70;36.80;;;;;;4992449;28;20390;-66
2022/05/01 04:30:14;;;;;;;1.30;0.75;;;23.70;36.80;;;;;;4992605;28;20544;-65
2022/05/01 04:32:53;;;;;;;2.33;0.90;;;23.70;36.80;;;;;;4992579;28;20437;-64
2022/05/01 04:35:23;;;;;;;1.95;0.88;;;23.70;36.80;;;;;;4992221;28;20739;-65
2022/05/01 04:37:49;;;;;;;1.20;1.00;;;23.70;36.70;;;;;;4992542;28;20406;-65
2022/05/01 04:40:15;;;;;;;2.60;0.80;;;23.70;36.70;;;;;;4992443;28;20412;-64
2022/05/01 04:42:42;;;;;;;1.77;0.80;;;23.70;36.80;;;;;;4992521;28;20394;-65
2022/05/01 04:45:10;;;;;;;1.10;0.85;;;23.70;36.80;;;;;;4991107;28;20871;-65
2022/05/01 04:47:35;;;;;;;1.10;0.77;;;23.70;36.70;;;;;;4992059;28;20406;-63
2022/05/01 04:50:01;;;;;;;1.40;0.88;;;23.70;36.70;;;;;;4992343;28;20748;-64
2022/05/01 04:52:26;;;;;;;1.20;0.80;;;23.70;36.80;;;;;;4992446;28;20819;-64
2022/05/01 04:54:52;;;;;;;1.40;0.70;;;23.70;36.70;;;;;;4992257;28;20391;-64
2022/05/01 04:57:18;;;;;;;1.40;0.68;;;23.70;36.70;;;;;;4992147;28;20390;-64
2022/05/01 04:59:44;;;;;;;1.30;0.80;;;23.70;36.80;;;;;;4990788;28;20449;-64
2022/05/01 05:02:10;;;;;;;1.00;0.80;;;23.70;36.70;;;;;;4992251;28;20459;-65
2022/05/01 05:04:36;;;;;;;1.25;0.75;;;23.70;36.70;;;;;;4992270;28;20383;-64
2022/05/01 05:07:01;;;;;;;1.27;0.70;;;23.70;36.60;;;;;;4992174;28;20402;-68
2022/05/01 05:12:12;;;;;;;1.17;0.90;;;23.70;36.60;;;;;;4992037;28;20421;-64
2022/05/01 05:14:38;;;;;;;1.38;0.80;;;23.70;36.60;;;;;;4992157;28;20485;-64
2022/05/01 05:17:09;;;;;;;0.80;0.77;;;23.70;36.70;;;;;;4991507;28;20485;-64
2022/05/01 05:19:35;;;;;;;1.23;0.82;;;23.70;36.60;;;;;;4991658;28;20399;-64
2022/05/01 05:22:01;;;;;;;1.40;0.75;;;23.70;36.60;;;;;;4991969;28;20453;-64
2022/05/01 05:24:27;;;;;;;1.25;0.82;;;23.70;36.60;;;;;;4991994;28;20387;-64
2022/05/01 05:26:53;;;;;;;2.25;0.90;;;23.70;36.60;;;;;;4991994;28;20819;-64
2022/05/01 05:29:18;;;;;;;1.35;0.80;;;23.70;36.70;;;;;;4991972;28;20394;-65
2022/05/01 05:31:44;;;;;;;1.60;0.80;;;23.70;36.70;;;;;;4991784;28;20517;-64
2022/05/01 05:34:09;;;;;;;1.40;0.83;;;23.70;36.70;;;;;;4991932;28;20390;-65
2022/05/01 05:36:35;;;;;;;1.10;0.70;;;23.70;36.80;;;;;;4991924;28;20387;-64
2022/05/01 05:39:01;;;;;;;1.20;0.87;;;23.70;36.80;;;;;;4991869;28;20452;-65
2022/05/01 05:41:26;;;;;;;1.80;0.90;;;23.70;36.80;;;;;;4991425;28;20426;-64
2022/05/01 05:43:52;;;;;;;1.40;0.80;;;23.70;36.80;;;;;;4991796;28;20430;-64
2022/05/01 05:46:18;;;;;;;2.10;0.83;;;23.70;36.70;;;;;;4991829;28;20402;-64
2022/05/01 05:48:43;;;;;;;1.10;0.82;;;23.70;36.70;;;;;;4991821;28;20395;-66
2022/05/01 05:51:09;;;;;;;1.40;0.90;;;23.70;36.70;;;;;;4991137;28;20395;-66
2022/05/01 05:53:35;;;;;;;1.27;0.80;;;23.70;36.70;;;;;;4990764;28;20382;-66
2022/05/01 05:56:00;;;;;;;1.20;0.90;;;23.70;36.60;;;;;;4991624;28;20398;-68
2022/05/01 05:58:26;;;;;;;3.60;0.90;;;23.70;36.90;;;;;;4990181;28;20394;-64
2022/05/01 06:00:52;;;;;;;1.70;1.00;;;23.70;37.10;;;;;;4999812;28;20449;-68
2022/05/01 06:03:19;;;;;;;1.90;1.20;;;23.70;37.60;;;;;;5007071;28;20388;-64
2022/05/01 06:05:46;;;;;;;3.72;1.10;;;23.70;36.90;;;;;;4998127;28;20910;-64
2022/05/01 06:08:12;;;;;;;2.72;1.42;;;23.60;37.20;;;;;;5005137;28;20481;-64
2022/05/01 06:10:38;;;;;;;3.88;1.40;;;23.50;37.60;;;;;;5005581;28;20535;-65
2022/05/01 06:13:04;;;;;;;3.22;1.50;;;23.50;37.10;;;;;;4999718;28;20393;-65
2022/05/01 06:15:31;;;;;;;3.28;1.45;;;23.60;37.70;;;;;;4999484;28;20882;-63
2022/05/01 06:17:56;;;;;;;3.17;1.35;;;23.60;37.40;;;;;;5000525;28;20442;-66
2022/05/01 06:20:22;;;;;;;5.07;1.60;;;23.60;37.40;;;;;;4999990;28;20555;-64
2022/05/01 06:22:51;;;;;;;2.23;1.30;;;23.60;37.20;;;;;;5000365;28;20922;-65
2022/05/01 06:25:17;;;;;;;4.43;1.40;;;23.60;37.20;;;;;;5000738;28;20393;-68
2022/05/01 06:27:43;;;;;;;3.55;1.40;;;23.60;37.50;;;;;;4998736;28;20405;-69
2022/05/01 06:30:12;;;;;;;7.13;1.50;;;23.50;37.60;;;;;;5003734;28;20385;-64
2022/05/01 06:32:39;;;;;;;7.32;1.40;;;23.50;37.60;;;;;;5003513;28;20399;-65
2022/05/01 06:35:06;;;;;;;6.03;1.20;;;23.50;38.10;;;;;;5002636;28;20959;-64
2022/05/01 06:37:33;;;;;;;4.65;1.30;;;23.50;38.10;;;;;;5003946;28;20889;-64
2022/05/01 06:39:59;;;;;;;3.95;1.10;;;23.40;38.00;;;;;;5012164;28;20400;-64
2022/05/01 06:42:25;;;;;;;3.67;1.50;;;23.40;38.20;;;;;;5014312;28;20393;-64
2022/05/01 06:44:50;;;;;;;2.33;1.07;;;23.40;38.40;;;;;;5014387;28;20887;-64
2022/05/01 06:47:16;;;;;;;3.60;1.13;;;23.40;38.50;;;;;;5014219;28;20397;-64
2022/05/01 06:49:42;;;;;;;4.75;1.30;;;23.50;38.60;;;;;;5020329;28;20457;-64
2022/05/01 06:52:08;;;;;;;4.18;1.10;;;23.50;38.60;;;;;;5017328;28;20838;-64
2022/05/01 06:54:33;;;;;;;3.58;1.17;;;23.50;38.70;;;;;;5013896;28;20917;-64
2022/05/01 06:56:59;;;;;;;2.35;1.00;;;23.50;38.70;;;;;;5013979;28;20401;-64
2022/05/01 06:59:25;;;;;;;2.63;1.05;;;23.50;38.60;;;;;;5013664;28;20388;-64
2022/05/01 07:01:50;;;;;;;1.97;1.20;;;23.50;38.70;;;;;;5012395;28;20516;-65
2022/05/01 07:04:16;;;;;;;3.60;1.10;;;23.50;38.70;;;;;;5013816;28;20511;-66
2022/05/01 07:06:42;;;;;;;2.05;1.13;;;23.50;38.80;;;;;;5013882;28;20407;-64
2022/05/01 07:09:07;;;;;;;2.90;1.20;;;23.50;38.80;;;;;;5013661;28;20385;-64
2022/05/01 07:11:33;;;;;;;7.03;1.00;;;23.50;38.90;;;;;;5013070;28;20765;-65
2022/05/01 07:13:59;;;;;;;4.60;1.20;;;23.60;39.60;;;;;;5013617;28;20600;-64
2022/05/01 07:16:24;;;;;;;7.47;1.05;;;23.50;39.20;;;;;;5013545;28;20401;-65
2022/05/01 07:18:50;;;;;;;3.77;1.20;;;23.60;39.20;;;;;;5013565;28;20475;-65
2022/05/01 07:21:15;;;;;;;3.88;1.00;;;23.60;39.10;;;;;;5013247;28;20424;-65
2022/05/01 07:23:41;;;;;;;2.30;1.10;;;23.60;39.20;;;;;;5013018;28;20389;-64
2022/05/01 07:26:07;;;;;;;4.32;1.05;;;23.60;39.10;;;;;;5013417;28;20397;-64
2022/05/01 07:28:35;;;;;;;2.40;1.10;;;23.60;39.10;;;;;;5013354;28;20479;-66
2022/05/01 07:31:03;;;;;;;2.63;0.90;;;23.60;39.20;;;;;;5013066;28;20392;-68
2022/05/01 07:33:29;;;;;;;4.05;1.00;;;23.60;39.80;;;;;;5013055;28;20416;-65
2022/05/01 07:35:55;;;;;;;6.60;1.30;;;23.50;40.50;;;;;;5012897;28;20861;-65
2022/05/01 07:38:21;;;;;;;5.93;1.50;;;23.50;39.70;;;;;;5003805;28;20486;-65
2022/05/01 07:40:46;;;;;;;5.65;1.30;;;23.60;39.50;;;;;;5004054;28;20425;-66
2022/05/01 07:43:12;;;;;;;6.47;1.60;;;23.60;39.40;;;;;;5010313;28;20805;-65
2022/05/01 07:45:38;;;;;;;4.68;1.33;;;23.60;39.20;;;;;;5011978;28;20400;-67
2022/05/01 07:48:03;;;;;;;5.30;1.50;;;23.60;38.70;;;;;;5011359;28;20444;-66
2022/05/01 07:50:29;;;;;;;5.65;1.48;;;23.60;39.40;;;;;;5013113;28;20393;-66
2022/05/01 07:52:55;;;;;;;5.90;1.40;;;23.60;39.30;;;;;;5011644;28;20499;-66
2022/05/01 07:55:20;;;;;;;3.88;1.23;;;23.60;39.50;;;;;;5011444;28;20739;-65
2022/05/01 07:57:46;;;;;;;6.97;1.30;;;23.50;39.30;;;;;;5010152;28;20746;-65
2022/05/01 08:00:13;;;;;;;6.33;1.23;;;23.50;39.10;;;;;;5010158;28;20417;-66
2022/05/01 08:05:24;;;;;;;2.70;1.13;;;23.60;38.90;;;;;;5013032;28;20882;-66
2022/05/01 08:07:51;;;;;;;5.55;1.17;;;23.60;38.90;;;;;;5011013;28;20412;-65
2022/05/01 08:10:17;;;;;;;2.83;1.25;;;23.60;39.00;;;;;;5012333;28;20385;-65
2022/05/01 08:12:43;;;;;;;3.20;1.10;;;23.60;38.90;;;;;;5012065;28;20411;-65
2022/05/01 08:15:09;;;;;;;2.33;1.23;;;23.60;38.90;;;;;;5012527;28;20488;-65
2022/05/01 08:17:35;;;;;;;4.05;1.52;;;23.60;38.80;;;;;;5012090;28;20397;-65
2022/05/01 08:22:44;;;;;;;3.83;1.53;;;23.60;38.70;;;;;;5012529;28;20404;-66
2022/05/01 08:25:11;;;;;;;2.63;1.40;;;23.60;38.70;;;;;;5012407;28;20393;-67
2022/05/01 08:27:38;;;;;;;3.58;1.70;;;23.60;38.50;;;;;;5011611;28;20393;-65
2022/05/01 08:30:05;;;;;;;3.27;1.60;;;23.60;38.60;;;;;;5012280;28;20388;-67
2022/05/01 08:32:31;;;;;;;3.10;1.33;;;23.60;38.60;;;;;;5011090;28;20416;-65
2022/05/01 08:34:57;;;;;;;2.70;1.48;;;23.60;38.50;;;;;;5012222;28;20396;-66
2022/05/01 08:37:23;;;;;;;3.15;1.45;;;23.60;38.50;;;;;;5010638;28;20393;-65
2022/05/01 08:39:48;;;;;;;2.53;1.40;;;23.60;38.50;;;;;;5010402;28;20829;-66
2022/05/01 08:42:14;;;;;;;3.23;1.30;;;23.60;38.60;;;;;;5011709;28;20467;-66
2022/05/01 08:44:40;;;;;;;3.35;1.50;;;23.60;38.50;;;;;;5010883;28;20397;-66
2022/05/01 08:47:23;;;;;;;2.20;1.40;;;23.60;38.50;;;;;;5010706;28;20391;-65
2022/05/01 08:49:57;;;;;;;2.45;1.40;;;23.60;38.40;;;;;;5009795;28;20493;-66
2022/05/01 08:52:24;;;;;;;2.67;1.60;;;23.60;38.30;;;;;;5011459;28;20404;-65
2022/05/01 08:54:50;;;;;;;2.03;1.40;;;23.60;38.30;;;;;;5010072;28;20945;-66
2022/05/01 08:57:20;;;;;;;2.35;1.50;;;23.60;38.40;;;;;;5011141;28;20428;-66
2022/05/01 08:59:46;;;;;;;2.13;1.30;;;23.60;38.30;;;;;;5011386;28;20424;-67
2022/05/01 09:02:12;;;;;;;2.07;1.40;;;23.60;38.20;;;;;;5010460;28;20472;-69
2022/05/01 09:04:41;;;;;;;2.70;1.50;;;23.60;38.20;;;;;;5011894;28;20899;-65
2022/05/01 09:07:06;;;;;;;3.33;1.60;;;23.60;37.90;;;;;;5011517;28;20405;-65
2022/05/01 09:09:32;;;;;;;2.95;1.40;;;23.60;38.00;;;;;;5011565;28;20711;-65
2022/05/01 09:14:42;;;;;;;2.10;1.35;;;23.60;39.40;;;;;;5011764;28;20892;-66
2022/05/01 09:17:21;;;;;;;3.65;1.70;;;23.70;39.00;;;;;;5011575;28;20762;-65
2022/05/01 09:19:53;;;;;;;5.35;2.58;;;23.90;39.30;;;;;;5011248;28;20385;-65
2022/05/01 09:22:20;;;;;;;3.88;2.33;;;24.00;39.40;;;;;;5011725;28;20893;-64
2022/05/01 09:24:52;;;;;;;3.27;1.90;;;24.20;39.20;;;;;;5011392;28;20478;-65
2022/05/01 09:27:29;;;;;;;4.43;1.95;;;24.20;39.10;;;;;;5010946;28;20397;-69
2022/05/01 09:30:08;;;;;;;6.10;1.92;;;24.20;39.10;;;;;;5010045;28;20948;-69
2022/05/01 09:32:38;;;;;;;5.15;1.95;;;24.30;39.50;;;;;;5010474;28;20404;-65
2022/05/01 09:35:15;;;;;;;4.43;2.17;;;24.40;40.60;;;;;;5011188;28;20420;-69
2022/05/01 09:37:40;;;;;;;4.15;2.30;;;24.50;39.80;;;;;;5010901;28;20419;-64
2022/05/01 09:40:07;;;;;;;5.25;2.40;;;24.60;39.60;;;;;;5009854;28;20750;-69
2022/05/01 09:42:36;;;;;;;4.13;2.70;;;24.70;40.50;;;;;;5000376;28;20428;-64
2022/05/01 09:45:07;;;;;;;6.32;2.20;;;24.80;39.80;;;;;;5003842;28;20399;-69
2022/05/01 09:47:37;;;;;;;4.00;3.00;;;24.80;39.60;;;;;;5001663;28;20390;-64
2022/05/01 09:50:05;;;;;;;3.97;2.28;;;24.90;39.70;;;;;;4999506;28;20388;-65
2022/05/01 09:52:57;;;;;;;4.60;2.50;;;25.20;39.20;;;;;;5000934;28;20405;-67
2022/05/01 09:55:24;;;;;;;5.97;2.10;;;25.30;38.90;;;;;;5005893;28;20389;-68
2022/05/01 09:58:01;;;;;;;5.45;1.90;;;25.40;38.90;;;;;;5009510;28;20440;-68
2022/05/01 10:00:38;;;;;;;3.97;2.00;;;25.40;39.10;;;;;;5010314;28;20444;-66
2022/05/01 10:03:24;;;;;;;6.40;2.00;;;25.40;40.10;;;;;;5013446;28;20397;-65
2022/05/01 10:05:52;;;;;;;4.05;1.60;;;25.40;41.30;;;;;;5012522;28;20446;-68
2022/05/01 10:08:19;;;;;;;6.63;2.00;;;25.40;41.00;;;;;;5015334;28;20413;-66
2022/05/01 10:10:47;;;;;;;6.90;2.00;;;25.30;40.60;;;;;;5014250;28;20415;-67
2022/05/01 10:13:13;;;;;;;6.60;1.85;;;25.30;39.90;;;;;;5024115;28;20494;-68
2022/05/01 10:15:39;;;;;;;4.03;1.70;;;25.20;39.60;;;;;;5013184;28;20444;-65
2022/05/01 10:18:06;;;;;;;4.63;2.00;;;25.10;39.80;;;;;;5013918;28;20428;-68
2022/05/01 10:20:34;;;;;;;7.15;1.77;;;25.10;40.00;;;;;;5013849;28;20412;-66
2022/05/01 10:23:02;;;;;;;5.53;1.80;;;25.00;40.10;;;;;;5012539;28;20928;-64
2022/05/01 10:25:32;;;;;;;4.90;1.60;;;25.00;40.10;;;;;;5013882;28;20869;-64
2022/05/01 10:28:17;;;;;;;3.22;1.75;;;25.00;39.90;;;;;;5013650;28;20435;-64
2022/05/01 10:33:46;;;;;;;3.53;1.50;;;24.90;39.70;;;;;;5013579;28;20927;-64
2022/05/01 10:36:30;;;;;;;4.03;1.50;;;24.90;39.30;;;;;;5006595;28;20400;-64
2022/05/01 10:39:09;;;;;;;4.20;1.60;;;24.80;39.30;;;;;;4996051;28;20398;-66
2022/05/01 10:41:40;;;;;;;3.05;1.30;;;24.80;38.70;;;;;;4994735;28;20430;-66
2022/05/01 10:44:06;;;;;;;2.07;1.30;;;24.80;38.20;;;;;;4994326;28;20425;-66
2022/05/01 10:46:32;;;;;;;3.42;1.48;;;24.80;37.90;;;;;;4993515;28;20406;-65
2022/05/01 10:49:18;;;;;;;2.30;1.30;;;24.80;37.60;;;;;;4993343;28;20899;-69
2022/05/01 10:51:46;;;;;;;2.00;1.30;;;24.70;37.60;;;;;;4995042;28;20450;-68
2022/05/01 10:54:15;;;;;;;2.10;1.20;;;24.70;37.30;;;;;;4994065;28;20390;-65
2022/05/01 10:56:43;;;;;;;3.88;1.20;;;24.70;37.10;;;;;;4993200;28;20445;-66
2022/05/01 10:59:48;;;;;;;2.90;1.38;;;24.70;37.00;;;;;;4994382;28;20391;-68
2022/05/01 11:02:25;;;;;;;3.97;1.40;;;24.70;37.10;;;;;;4994302;28;20925;-66
2022/05/01 11:04:52;;;;;;;2.60;1.30;;;24.70;36.90;;;;;;4994251;28;20398;-66
2022/05/01 11:07:19;;;;;;;2.63;1.27;;;24.70;36.70;;;;;;4992827;28;20403;-67
2022/05/01 11:09:47;;;;;;;2.90;1.40;;;24.70;36.80;;;;;;4992418;28;20446;-66
2022/05/01 11:12:22;;;;;;;3.30;1.30;;;24.80;36.90;;;;;;4993968;28;20417;-66
2022/05/01 11:14:59;;;;;;;2.30;1.30;;;24.80;36.90;;;;;;4993247;28;20763;-64
2022/05/01 11:17:41;;;;;;;2.30;1.42;;;24.70;36.70;;;;;;4992708;28;20413;-64
2022/05/01 11:20:23;;;;;;;2.10;1.27;;;24.80;36.80;;;;;;4992527;28;20406;-68
2022/05/01 11:22:49;;;;;;;1.52;1.00;;;24.70;36.70;;;;;;4993763;28;20811;-65
2022/05/01 11:25:38;;;;;;;1.90;1.13;;;24.70;36.80;;;;;;4994049;28;20398;-74
2022/05/01 11:28:04;;;;;;;1.90;1.20;;;24.70;36.80;;;;;;4993903;28;20743;-70
2022/05/01 11:30:31;;;;;;;3.08;1.38;;;24.70;36.70;;;;;;4994000;28;20407;-66
2022/05/01 11:33:08;;;;;;;2.50;1.30;;;24.80;36.70;;;;;;4993817;28;20390;-66
2022/05/01 11:35:58;;;;;;;4.57;1.50;;;24.70;36.60;;;;;;4994032;28;20391;-66
2022/05/01 11:38:33;;;;;;;5.10;1.45;;;24.60;37.10;;;;;;4993743;28;20464;-67
2022/05/01 11:41:01;;;;;;;5.38;1.42;;;24.60;37.40;;;;;;4992964;28;20899;-67
2022/05/01 11:43:28;;;;;;;3.72;1.50;;;24.50;37.60;;;;;;4994108;28;20537;-72
2022/05/01 11:45:59;;;;;;;2.85;1.45;;;24.60;37.80;;;;;;4992235;28;20466;-68
2022/05/01 11:48:25;;;;;;;3.38;1.45;;;24.60;37.80;;;;;;5008989;28;20403;-69
2022/05/01 11:50:53;;;;;;;5.35;1.60;;;24.70;37.90;;;;;;4994320;28;20868;-68
2022/05/01 11:53:23;;;;;;;6.33;1.33;;;24.70;37.70;;;;;;4993099;28;20422;-67
2022/05/01 12:04:28;;;;;;;7.23;1.83;;;24.70;37.40;;;;;;5012116;28;20472;-66
2022/05/01 12:07:17;;;;;;;7.68;1.70;;;24.70;37.00;;;;;;5011105;28;20400;-72
2022/05/01 12:09:46;;;;;;;5.55;1.50;;;24.70;36.90;;;;;;5003205;28;20485;-67
2022/05/01 12:12:17;;;;;;;6.10;1.50;;;24.80;36.90;;;;;;4992628;28;20927;-67
2022/05/01 12:14:43;;;;;;;8.20;1.90;;;24.80;36.90;;;;;;4991746;28;20430;-67
2022/05/01 12:17:29;;;;;;;5.88;1.60;;;24.70;36.90;;;;;;4992699;28;20498;-68
2022/05/01 12:19:54;;;;;;;5.20;1.48;;;24.80;36.90;;;;;;5006134;28;20782;-73
2022/05/01 12:22:23;;;;;;;2.63;1.23;;;24.70;36.90;;;;;;5008008;28;20558;-67
2022/05/01 12:24:49;;;;;;;3.03;1.33;;;24.70;36.90;;;;;;4991698;28;20395;-71
2022/05/01 12:27:18;;;;;;;5.88;1.60;;;24.70;37.80;;;;;;5007779;28;20406;-67
2022/05/01 12:29:55;;;;;;;5.22;1.60;;;24.70;37.50;;;;;;4992500;28;20386;-67
2022/05/01 12:32:20;;;;;;;3.97;1.45;;;24.70;37.80;;;;;;4991394;28;20759;-66
2022/05/01 12:34:46;;;;;;;3.03;1.40;;;24.60;37.80;;;;;;4992515;28;20398;-68
2022/05/01 12:37:15;;;;;;;6.20;1.60;;;24.70;37.60;;;;;;4992643;28;20394;-69
2022/05/01 12:39:43;;;;;;;5.53;1.50;;;24.70;37.20;;;;;;4992388;28;20394;-67
2022/05/01 12:45:18;;;;;;;3.92;1.88;;;24.70;37.10;;;;;;4992435;28;20437;-67
2022/05/01 12:47:45;;;;;;;5.60;2.00;;;24.70;37.20;;;;;;4992135;28;20398;-68
2022/05/01 12:50:21;;;;;;;6.15;1.98;;;24.60;38.40;;;;;;5002944;28;20455;-68
2022/05/01 12:52:58;;;;;;;4.35;1.90;;;24.60;38.00;;;;;;5019105;28;20393;-67
2022/05/01 12:55:31;;;;;;;4.78;1.80;;;24.60;38.70;;;;;;5011879;28;20381;-68
2022/05/01 12:58:02;;;;;;;4.15;1.80;;;24.50;38.50;;;;;;5011352;28;20415;-66
2022/05/01 13:00:35;;;;;;;19.60;2.83;;;24.40;38.60;;;;;;5010604;28;20773;-69
2022/05/01 13:03:19;;;;;;;8.23;1.80;;;24.40;39.20;;;;;;5011783;28;20385;-68
2022/05/01 13:06:11;;;;;;;6.30;1.85;;;24.40;39.00;;;;;;5011560;28;20873;-67
2022/05/01 13:08:45;;;;;;;6.47;1.70;;;24.50;38.80;;;;;;5011862;28;20420;-67
2022/05/01 13:11:13;;;;;;;10.32;1.90;;;24.60;39.10;;;;;;5011347;28;20404;-66
2022/05/01 13:13:46;;;;;;;6.00;1.70;;;24.70;38.90;;;;;;5011835;28;20408;-67
2022/05/01 13:16:13;;;;;;;4.75;1.52;;;24.70;38.40;;;;;;5011385;28;20412;-66
2022/05/01 13:18:39;;;;;;;5.95;1.70;;;24.60;38.40;;;;;;5010421;28;20397;-66
2022/05/01 13:21:06;;;;;;;6.05;1.70;;;24.70;38.50;;;;;;5010056;28;20504;-67
2022/05/01 13:23:32;;;;;;;6.22;1.80;;;24.70;38.50;;;;;;5002185;28;20399;-70
2022/05/01 13:25:58;;;;;;;4.90;1.42;;;24.70;38.40;;;;;;5000749;28;20534;-69
2022/05/01 13:28:23;;;;;;;4.80;1.50;;;24.80;38.20;;;;;;5011541;28;20410;-67
2022/05/01 13:30:49;;;;;;;4.63;1.48;;;24.80;37.90;;;;;;5010960;28;20420;-66
2022/05/01 13:33:15;;;;;;;5.90;1.40;;;24.80;37.80;;;;;;5011091;28;20397;-67